createdAt,value
2017-11-25T00:01:53.985Z,41.80
2017-11-25T00:04:21.495Z,43.13
2017-11-25T00:06:49.774Z,49.07
2017-11-25T00:09:17.244Z,41.95
2017-11-25T00:11:45.440Z,42.72
2017-11-25T00:14:13.025Z,41.08
2017-11-25T00:16:40.569Z,43.60
2017-11-25T00:19:08.069Z,42.40
2017-11-25T00:21:36.419Z,44.00
2017-11-25T00:24:03.866Z,42.78
2017-11-25T00:26:31.339Z,42.20
2017-11-25T00:28:58.782Z,42.17
2017-11-25T00:31:26.220Z,42.42
2017-11-25T00:33:53.660Z,46.30
2017-11-25T00:36:21.163Z,41.90
2017-11-25T00:38:48.579Z,42.00
2017-11-25T00:41:16.057Z,39.90
2017-11-25T00:43:43.527Z,38.33
2017-11-25T00:46:10.985Z,39.17
2017-11-25T00:48:38.407Z,40.00
2017-11-25T00:51:05.887Z,39.30
2017-11-25T00:53:33.358Z,38.83
2017-11-25T00:56:00.904Z,40.15
2017-11-25T00:58:28.477Z,43.25
2017-11-25T01:00:55.985Z,42.22
2017-11-25T01:03:23.599Z,41.35
2017-11-25T01:05:51.055Z,42.05
2017-11-25T01:08:18.491Z,42.25
2017-11-25T01:10:45.932Z,41.20
2017-11-25T01:13:13.375Z,41.20
2017-11-25T01:15:40.821Z,39.83
2017-11-25T01:18:08.265Z,42.05
2017-11-25T01:20:36.463Z,40.47
2017-11-25T01:23:03.887Z,43.85
2017-11-25T01:25:32.119Z,43.05
2017-11-25T01:27:59.593Z,42.70
2017-11-25T01:30:27.023Z,43.63
2017-11-25T01:32:54.462Z,43.67
2017-11-25T01:35:21.912Z,42.85
2017-11-25T01:37:49.360Z,42.83
2017-11-25T01:40:17.559Z,43.75
2017-11-25T01:42:44.994Z,44.78
2017-11-25T01:45:12.484Z,43.75
2017-11-25T01:47:39.915Z,43.50
2017-11-25T01:50:07.504Z,42.03
2017-11-25T01:52:34.952Z,42.28
2017-11-25T01:55:02.392Z,40.63
2017-11-25T01:57:29.829Z,35.90
2017-11-25T01:59:57.272Z,38.75
2017-11-25T02:02:25.480Z,37.97
2017-11-25T02:04:52.961Z,36.60
2017-11-25T02:07:20.402Z,36.43
2017-11-25T02:09:47.854Z,36.38
2017-11-25T02:12:15.298Z,36.85
2017-11-25T02:14:42.917Z,35.20
2017-11-25T02:17:11.157Z,35.60
2017-11-25T02:19:38.716Z,37.15
2017-11-25T02:22:06.156Z,36.13
2017-11-25T02:24:33.600Z,37.03
2017-11-25T02:27:01.097Z,39.55
2017-11-25T02:29:28.543Z,39.70
2017-11-25T02:31:55.998Z,38.78
2017-11-25T02:34:23.456Z,37.85
2017-11-25T02:36:50.907Z,38.93
2017-11-25T02:39:18.365Z,38.67
2017-11-25T02:41:45.829Z,38.58
2017-11-25T02:44:13.280Z,39.10
2017-11-25T02:46:40.741Z,41.17
2017-11-25T02:49:08.197Z,39.28
2017-11-25T02:51:35.649Z,38.22
2017-11-25T02:54:03.103Z,39.17
2017-11-25T02:56:30.645Z,39.63
2017-11-25T02:58:58.133Z,38.92
2017-11-25T03:01:25.587Z,37.85
2017-11-25T03:03:53.181Z,38.75
2017-11-25T03:06:20.795Z,38.22
2017-11-25T03:08:48.339Z,38.20
2017-11-25T03:11:15.778Z,38.55
2017-11-25T03:13:43.231Z,40.25
2017-11-25T03:16:10.670Z,37.80
2017-11-25T03:18:38.881Z,37.38
2017-11-25T03:21:06.311Z,36.63
2017-11-25T03:23:33.751Z,39.67
2017-11-25T03:26:02.092Z,42.05
2017-11-25T03:28:29.536Z,42.90
2017-11-25T03:30:57.021Z,39.83
2017-11-25T03:33:25.974Z,39.42
2017-11-25T03:35:53.407Z,40.45
2017-11-25T03:38:20.851Z,39.92
2017-11-25T03:40:49.064Z,39.22
2017-11-25T03:43:16.524Z,39.60
2017-11-25T03:45:43.993Z,40.33
2017-11-25T03:48:11.435Z,42.10
2017-11-25T03:50:38.910Z,41.23
2017-11-25T03:53:06.364Z,41.65
2017-11-25T03:55:33.795Z,39.97
2017-11-25T03:58:01.236Z,41.78
2017-11-25T04:00:28.737Z,41.90
2017-11-25T04:02:56.183Z,41.17
2017-11-25T04:05:23.652Z,43.65
2017-11-25T04:07:51.133Z,44.25
2017-11-25T04:10:18.576Z,43.95
2017-11-25T04:12:46.123Z,45.05
2017-11-25T04:15:13.556Z,45.17
2017-11-25T04:17:41.011Z,45.97
2017-11-25T04:20:08.441Z,46.83
2017-11-25T04:22:36.646Z,42.97
2017-11-25T04:25:04.183Z,45.92
2017-11-25T04:27:31.632Z,45.12
2017-11-25T04:29:59.846Z,44.72
2017-11-25T04:32:27.438Z,43.22
2017-11-25T04:34:54.868Z,42.95
2017-11-25T04:37:22.320Z,42.03
2017-11-25T04:39:49.775Z,41.28
2017-11-25T04:42:17.240Z,43.35
2017-11-25T04:44:44.672Z,42.25
2017-11-25T04:47:12.107Z,38.47
2017-11-25T04:49:39.547Z,41.07
2017-11-25T04:52:07.743Z,41.70
2017-11-25T04:54:35.192Z,43.45
2017-11-25T04:57:02.627Z,43.22
2017-11-25T04:59:30.173Z,41.75
2017-11-25T05:01:57.721Z,42.80
2017-11-25T05:04:25.165Z,42.47
2017-11-25T05:06:52.631Z,41.88
2017-11-25T05:09:20.093Z,41.70
2017-11-25T05:11:47.531Z,40.30
2017-11-25T05:14:14.993Z,41.90
2017-11-25T05:16:42.428Z,41.95
2017-11-25T05:19:09.860Z,42.77
2017-11-25T05:21:37.364Z,43.80
2017-11-25T05:24:04.792Z,43.70
2017-11-25T05:26:32.243Z,42.88
2017-11-25T05:28:59.676Z,42.53
2017-11-25T05:31:27.188Z,43.28
2017-11-25T05:33:54.636Z,43.85
2017-11-25T05:36:22.099Z,43.55
2017-11-25T05:38:49.576Z,45.50
2017-11-25T05:41:17.043Z,44.90
2017-11-25T05:43:44.483Z,43.83
2017-11-25T05:46:11.929Z,45.25
2017-11-25T05:48:39.364Z,47.47
2017-11-25T05:51:06.839Z,45.33
2017-11-25T05:53:34.279Z,44.83
2017-11-25T05:56:01.734Z,42.33
2017-11-25T05:58:29.162Z,44.25
2017-11-25T06:00:57.384Z,43.28
2017-11-25T06:03:24.848Z,41.28
2017-11-25T06:05:52.300Z,41.35
2017-11-25T06:08:19.726Z,40.08
2017-11-25T06:10:47.183Z,41.33
2017-11-25T06:13:14.636Z,40.08
2017-11-25T06:15:42.120Z,42.05
2017-11-25T06:18:09.567Z,40.95
2017-11-25T06:20:37.003Z,39.83
2017-11-25T06:23:04.688Z,38.40
2017-11-25T06:25:32.128Z,35.88
2017-11-25T06:27:59.559Z,37.78
2017-11-25T06:30:27.040Z,38.40
2017-11-25T06:32:54.520Z,37.53
2017-11-25T06:35:21.961Z,36.72
2017-11-25T06:37:49.403Z,36.28
2017-11-25T06:40:16.874Z,34.97
2017-11-25T06:42:44.338Z,38.55
2017-11-25T06:45:11.812Z,38.28
2017-11-25T06:47:39.269Z,36.15
2017-11-25T06:50:06.797Z,38.08
2017-11-25T06:52:34.256Z,38.10
2017-11-25T06:55:01.844Z,39.00
2017-11-25T06:57:29.412Z,42.22
2017-11-25T06:59:56.847Z,40.75
2017-11-25T07:02:24.300Z,37.85
2017-11-25T07:04:51.752Z,41.70
2017-11-25T07:07:19.239Z,40.00
2017-11-25T07:09:46.779Z,36.72
2017-11-25T07:12:14.245Z,37.28
2017-11-25T07:14:41.676Z,39.30
2017-11-25T07:17:09.135Z,38.40
2017-11-25T07:19:36.562Z,37.13
2017-11-25T07:22:04.014Z,37.58
2017-11-25T07:24:32.257Z,36.50
2017-11-25T07:26:59.722Z,35.72
2017-11-25T07:29:27.169Z,34.53
2017-11-25T07:31:54.728Z,33.93
2017-11-25T07:34:22.168Z,34.43
2017-11-25T07:36:49.620Z,37.05
2017-11-25T07:39:17.149Z,38.70
2017-11-25T07:41:44.649Z,39.20
2017-11-25T07:44:12.093Z,37.60
2017-11-25T07:46:39.533Z,37.75
2017-11-25T07:49:07.020Z,39.25
2017-11-25T07:51:34.464Z,39.63
2017-11-25T07:54:01.939Z,36.80
2017-11-25T07:56:29.366Z,36.20
2017-11-25T07:58:56.811Z,35.72
2017-11-25T08:01:24.252Z,35.00
2017-11-25T08:03:51.932Z,35.17
2017-11-25T08:06:19.367Z,33.80
2017-11-25T08:08:46.809Z,33.97
2017-11-25T08:11:15.011Z,34.10
2017-11-25T08:13:42.457Z,34.45
2017-11-25T08:16:09.895Z,32.42
2017-11-25T08:18:38.119Z,31.80
2017-11-25T08:21:05.573Z,30.25
2017-11-25T08:23:33.053Z,32.63
2017-11-25T08:26:00.476Z,32.90
2017-11-25T08:28:27.953Z,31.67
2017-11-25T08:30:55.489Z,32.53
2017-11-25T08:33:22.912Z,34.72
2017-11-25T08:35:51.118Z,35.80
2017-11-25T08:38:18.585Z,37.67
2017-11-25T08:40:46.060Z,37.03
2017-11-25T08:43:13.498Z,37.20
2017-11-25T08:45:40.923Z,36.47
2017-11-25T08:48:08.368Z,36.95
2017-11-25T08:50:36.594Z,35.30
2017-11-25T08:53:04.039Z,36.10
2017-11-25T08:55:31.509Z,33.90
2017-11-25T08:57:58.949Z,35.13
2017-11-25T09:00:26.430Z,34.20
2017-11-25T09:02:53.855Z,34.10
2017-11-25T09:05:21.343Z,33.75
2017-11-25T09:07:48.905Z,34.30
2017-11-25T09:10:16.555Z,34.55
2017-11-25T09:12:44.068Z,37.15
2017-11-25T09:15:11.695Z,35.58
2017-11-25T09:17:39.123Z,35.63
2017-11-25T09:20:06.564Z,35.65
2017-11-25T09:22:34.013Z,36.85
2017-11-25T09:25:01.465Z,35.55
2017-11-25T09:27:28.979Z,37.00
2017-11-25T09:29:56.415Z,35.97
2017-11-25T09:32:23.864Z,36.78
2017-11-25T09:34:51.353Z,35.83
2017-11-25T09:37:18.969Z,34.57
2017-11-25T09:39:46.432Z,34.35
2017-11-25T09:42:13.885Z,35.95
2017-11-25T09:44:41.312Z,38.72
2017-11-25T09:47:09.512Z,38.30
2017-11-25T09:49:36.952Z,36.42
2017-11-25T09:52:04.392Z,36.00
2017-11-25T09:54:32.604Z,33.55
2017-11-25T09:57:00.071Z,33.30
2017-11-25T09:59:27.527Z,34.05
2017-11-25T10:01:54.996Z,31.33
2017-11-25T10:04:22.560Z,30.42
2017-11-25T10:06:50.012Z,29.33
2017-11-25T10:09:17.485Z,30.00
2017-11-25T10:11:45.024Z,30.55
2017-11-25T10:14:12.463Z,31.90
2017-11-25T10:16:39.926Z,30.40
2017-11-25T10:19:07.362Z,30.37
2017-11-25T10:21:34.851Z,26.67
2017-11-25T10:24:02.295Z,27.90
2017-11-25T10:26:29.763Z,24.70
2017-11-25T10:28:58.248Z,26.80
2017-11-25T10:31:25.824Z,26.15
2017-11-25T10:33:53.256Z,27.10
2017-11-25T10:36:20.697Z,28.87
2017-11-25T10:38:48.137Z,25.20
2017-11-25T10:41:15.589Z,26.12
2017-11-25T10:43:43.012Z,26.05
2017-11-25T10:46:11.236Z,26.42
2017-11-25T10:48:38.716Z,27.42
2017-11-25T10:51:06.190Z,27.25
2017-11-25T10:53:33.724Z,26.87
2017-11-25T10:56:01.226Z,24.08
2017-11-25T10:58:28.659Z,22.92
2017-11-25T11:00:56.108Z,23.05
2017-11-25T11:03:23.558Z,23.10
2017-11-25T11:05:51.116Z,24.17
2017-11-25T11:08:18.549Z,27.35
2017-11-25T11:10:45.998Z,24.85
2017-11-25T11:13:13.438Z,24.55
2017-11-25T11:15:41.647Z,23.62
2017-11-25T11:18:09.111Z,24.60
2017-11-25T11:20:36.552Z,24.70
2017-11-25T11:23:03.997Z,23.60
2017-11-25T11:25:31.499Z,24.33
2017-11-25T11:27:58.960Z,22.65
2017-11-25T11:30:26.392Z,20.98
2017-11-25T11:32:53.859Z,23.73
2017-11-25T11:35:21.312Z,24.45
2017-11-25T11:37:48.766Z,24.92
2017-11-25T11:40:16.223Z,23.83
2017-11-25T11:42:43.694Z,23.77
2017-11-25T11:45:11.317Z,22.00
2017-11-25T11:47:38.748Z,21.62
2017-11-25T11:50:07.084Z,22.60
2017-11-25T11:52:34.560Z,22.92
2017-11-25T11:55:01.991Z,22.70
2017-11-25T11:57:29.544Z,21.97
2017-11-25T11:59:56.984Z,21.95
2017-11-25T12:02:24.452Z,22.23
2017-11-25T12:04:51.922Z,21.40
2017-11-25T12:07:19.361Z,22.33
2017-11-25T12:09:46.792Z,23.00
2017-11-25T12:12:14.236Z,22.35
2017-11-25T12:14:41.695Z,22.30
2017-11-25T12:17:09.226Z,23.35
2017-11-25T12:19:36.663Z,22.80
2017-11-25T12:22:04.103Z,21.50
2017-11-25T12:24:31.559Z,22.48
2017-11-25T12:26:59.015Z,22.37
2017-11-25T12:29:26.457Z,23.58
2017-11-25T12:31:53.906Z,22.92
2017-11-25T12:34:21.343Z,23.27
2017-11-25T12:36:49.571Z,23.80
2017-11-25T12:39:17.017Z,25.98
2017-11-25T12:41:44.673Z,24.73
2017-11-25T12:44:12.108Z,25.52
2017-11-25T12:46:39.536Z,23.02
2017-11-25T12:49:06.985Z,22.95
2017-11-25T12:51:34.433Z,22.67
2017-11-25T12:54:01.875Z,23.87
2017-11-25T12:56:30.648Z,23.62
2017-11-25T12:58:58.496Z,23.75
2017-11-25T13:01:25.927Z,24.65
2017-11-25T13:03:54.123Z,22.92
2017-11-25T13:06:21.634Z,21.42
2017-11-25T13:08:49.075Z,22.10
2017-11-25T13:11:16.607Z,21.48
2017-11-25T13:13:44.166Z,22.05
2017-11-25T13:16:11.590Z,21.90
2017-11-25T13:18:39.807Z,20.55
2017-11-25T13:21:07.257Z,22.25
2017-11-25T13:23:34.743Z,21.65
2017-11-25T13:26:02.200Z,21.02
2017-11-25T13:28:29.787Z,21.50
2017-11-25T13:30:57.303Z,20.33
2017-11-25T13:33:24.747Z,21.10
2017-11-25T13:35:52.191Z,19.70
2017-11-25T13:38:19.640Z,21.70
2017-11-25T13:40:47.092Z,20.70
2017-11-25T13:43:14.544Z,22.30
2017-11-25T13:45:42.043Z,23.05
2017-11-25T13:48:09.488Z,23.65
2017-11-25T13:50:36.946Z,22.27
2017-11-25T13:53:04.409Z,23.30
2017-11-25T13:55:31.839Z,22.90
2017-11-25T13:57:59.418Z,22.45
2017-11-25T14:00:26.856Z,23.95
2017-11-25T14:02:54.437Z,23.92
2017-11-25T14:05:21.904Z,23.90
2017-11-25T14:07:49.341Z,24.77
2017-11-25T14:10:16.795Z,23.95
2017-11-25T14:12:44.251Z,24.98
2017-11-25T14:15:11.716Z,25.35
2017-11-25T14:17:39.173Z,25.33
2017-11-25T14:20:06.643Z,25.12
2017-11-25T14:22:34.076Z,28.43
2017-11-25T14:25:01.565Z,27.02
2017-11-25T14:27:29.208Z,27.65
2017-11-25T14:29:56.684Z,26.87
2017-11-25T14:32:24.112Z,33.20
2017-11-25T14:34:51.603Z,26.87
2017-11-25T14:37:19.039Z,26.67
2017-11-25T14:39:46.497Z,22.98
2017-11-25T14:42:13.974Z,25.67
2017-11-25T14:44:41.419Z,21.02
2017-11-25T14:47:08.875Z,35.70
2017-11-25T14:49:36.422Z,22.08
2017-11-25T14:52:03.865Z,22.80
2017-11-25T14:54:31.455Z,27.83
2017-11-25T14:56:58.949Z,33.65
2017-11-25T14:59:26.372Z,27.75
2017-11-25T15:01:53.823Z,36.28
2017-11-25T15:04:21.272Z,28.73
2017-11-25T15:06:48.736Z,19.15
2017-11-25T15:09:16.212Z,20.13
2017-11-25T15:11:43.646Z,18.17
2017-11-25T15:14:11.079Z,23.45
2017-11-25T15:16:38.576Z,19.60
2017-11-25T15:19:06.015Z,17.42
2017-11-25T15:21:33.483Z,24.58
2017-11-25T15:24:00.960Z,19.12
2017-11-25T15:26:28.407Z,20.08
2017-11-25T15:28:55.852Z,20.40
2017-11-25T15:31:23.311Z,20.33
2017-11-25T15:33:50.760Z,18.50
2017-11-25T15:36:18.204Z,19.63
2017-11-25T15:38:45.684Z,19.97
2017-11-25T15:41:13.136Z,18.10
2017-11-25T15:43:40.584Z,17.42
2017-11-25T15:46:08.043Z,18.08
2017-11-25T15:48:35.607Z,17.02
2017-11-25T15:51:03.072Z,17.27
2017-11-25T15:53:30.604Z,17.30
2017-11-25T15:55:58.031Z,17.30
2017-11-25T15:58:25.468Z,16.55
2017-11-25T16:00:53.782Z,16.27
2017-11-25T16:03:21.275Z,16.95
2017-11-25T16:05:48.828Z,16.48
2017-11-25T16:08:16.301Z,15.48
2017-11-25T16:10:43.944Z,15.15
2017-11-25T16:13:11.383Z,16.02
2017-11-25T16:15:38.839Z,15.35
2017-11-25T16:18:06.386Z,15.73
2017-11-25T16:20:33.817Z,15.57
2017-11-25T16:23:01.293Z,16.48
2017-11-25T16:25:28.781Z,16.48
2017-11-25T16:27:56.243Z,15.57
2017-11-25T16:30:23.696Z,14.85
2017-11-25T16:32:51.153Z,14.63
2017-11-25T16:35:18.591Z,14.60
2017-11-25T16:37:46.020Z,14.20
2017-11-25T16:40:13.528Z,14.15
2017-11-25T16:42:41.086Z,14.60
2017-11-25T16:45:08.543Z,15.30
2017-11-25T16:47:36.004Z,15.50
2017-11-25T16:50:03.570Z,15.07
2017-11-25T16:52:31.121Z,17.00
2017-11-25T16:54:58.620Z,15.30
2017-11-25T16:57:26.091Z,16.30
2017-11-25T16:59:53.511Z,16.20
2017-11-25T17:02:21.747Z,15.85
2017-11-25T17:04:49.220Z,14.98
2017-11-25T17:07:16.746Z,15.20
2017-11-25T17:09:44.253Z,15.80
2017-11-25T17:12:11.872Z,15.73
2017-11-25T17:14:39.295Z,14.90
2017-11-25T17:17:06.847Z,16.42
2017-11-25T17:19:34.498Z,15.23
2017-11-25T17:22:03.503Z,15.80
2017-11-25T17:24:30.969Z,15.55
2017-11-25T17:26:58.552Z,16.77
2017-11-25T17:29:26.084Z,16.58
2017-11-25T17:31:53.560Z,15.95
2017-11-25T17:34:21.202Z,15.05
2017-11-25T17:36:48.738Z,15.80
2017-11-25T17:39:16.173Z,16.58
2017-11-25T17:41:43.675Z,15.70
2017-11-25T17:44:11.160Z,14.85
2017-11-25T17:46:38.648Z,14.77
2017-11-25T17:49:06.089Z,14.70
2017-11-25T17:51:33.549Z,13.15
2017-11-25T17:54:00.988Z,13.70
2017-11-25T17:56:28.476Z,12.52
2017-11-25T17:58:55.920Z,13.35
2017-11-25T18:01:23.384Z,13.77
2017-11-25T18:03:50.822Z,13.98
2017-11-25T18:06:18.268Z,13.27
2017-11-25T18:08:45.720Z,14.00
2017-11-25T18:11:13.174Z,13.50
2017-11-25T18:13:40.660Z,13.52
2017-11-25T18:16:08.196Z,13.50
2017-11-25T18:18:35.668Z,14.00
2017-11-25T18:21:03.102Z,13.32
2017-11-25T18:23:30.564Z,15.88
2017-11-25T18:25:58.051Z,14.05
2017-11-25T18:28:25.559Z,14.63
2017-11-25T18:30:53.059Z,14.10
2017-11-25T18:33:20.489Z,15.10
2017-11-25T18:35:47.944Z,15.93
2017-11-25T18:38:15.404Z,18.35
2017-11-25T18:40:42.868Z,18.90
2017-11-25T18:43:10.307Z,18.08
2017-11-25T18:45:37.795Z,20.05
2017-11-25T18:48:05.248Z,18.00
2017-11-25T18:50:32.772Z,16.02
2017-11-25T18:53:00.356Z,14.80
2017-11-25T18:55:27.816Z,13.90
2017-11-25T18:57:55.261Z,14.98
2017-11-25T19:00:22.806Z,13.90
2017-11-25T19:02:50.519Z,13.85
2017-11-25T19:05:17.955Z,14.63
2017-11-25T19:07:45.441Z,15.10
2017-11-25T19:10:13.683Z,15.70
2017-11-25T19:12:41.123Z,14.98
2017-11-25T19:15:08.612Z,15.10
2017-11-25T19:17:36.050Z,16.20
2017-11-25T19:20:03.930Z,17.40
2017-11-25T19:22:31.369Z,18.43
2017-11-25T19:24:58.817Z,19.65
2017-11-25T19:27:26.278Z,19.48
2017-11-25T19:29:53.723Z,20.80
2017-11-25T19:32:21.210Z,20.33
2017-11-25T19:34:48.647Z,19.77
2017-11-25T19:37:16.111Z,20.50
2017-11-25T19:39:43.666Z,20.17
2017-11-25T19:42:11.144Z,20.73
2017-11-25T19:44:38.599Z,21.55
2017-11-25T19:47:06.085Z,22.67
2017-11-25T19:49:34.335Z,23.08
2017-11-25T19:52:01.846Z,21.48
2017-11-25T19:54:29.353Z,22.37
2017-11-25T19:56:56.892Z,22.33
2017-11-25T19:59:24.349Z,23.33
2017-11-25T20:01:51.880Z,26.85
2017-11-25T20:04:19.306Z,28.08
2017-11-25T20:06:47.500Z,23.45
2017-11-25T20:09:14.934Z,22.00
2017-11-25T20:11:43.177Z,21.08
2017-11-25T20:14:10.655Z,21.73
2017-11-25T20:16:39.037Z,20.48
2017-11-25T20:19:06.776Z,20.30
2017-11-25T20:21:34.333Z,22.08
2017-11-25T20:24:01.806Z,21.98
2017-11-25T20:26:29.264Z,23.80
2017-11-25T20:28:56.735Z,23.05
2017-11-25T20:31:24.279Z,22.70
2017-11-25T20:33:52.736Z,22.13
2017-11-25T20:36:20.227Z,23.20
2017-11-25T20:38:47.684Z,22.98
2017-11-25T20:41:15.880Z,24.73
2017-11-25T20:43:44.120Z,25.75
2017-11-25T20:46:11.583Z,23.02
2017-11-25T20:48:39.135Z,24.40
2017-11-25T20:51:06.592Z,21.50
2017-11-25T20:53:34.029Z,21.52
2017-11-25T20:56:01.471Z,21.27
2017-11-25T20:58:28.911Z,21.23
2017-11-25T21:00:56.435Z,21.02
2017-11-25T21:03:24.004Z,20.23
2017-11-25T21:05:52.223Z,19.62
2017-11-25T21:08:19.663Z,18.58
2017-11-25T21:10:47.108Z,19.40
2017-11-25T21:13:15.364Z,19.87
2017-11-25T21:15:43.630Z,20.83
2017-11-25T21:18:11.249Z,22.73
2017-11-25T21:20:38.703Z,23.48
2017-11-25T21:23:06.182Z,23.75
2017-11-25T21:25:33.672Z,24.75
2017-11-25T21:28:01.893Z,21.60
2017-11-25T21:30:29.353Z,20.10
2017-11-25T21:32:56.914Z,23.42
2017-11-25T21:35:24.418Z,23.00
2017-11-25T21:37:52.656Z,28.37
2017-11-25T21:40:20.092Z,25.10
2017-11-25T21:42:47.532Z,26.87
2017-11-25T21:45:15.009Z,25.98
2017-11-25T21:47:42.448Z,24.85
2017-11-25T21:50:09.911Z,24.20
2017-11-25T21:52:37.404Z,25.27
2017-11-25T21:55:04.853Z,21.70
2017-11-25T21:57:32.298Z,21.90
2017-11-25T21:59:59.748Z,20.48
2017-11-25T22:02:27.225Z,20.20
2017-11-25T22:04:54.667Z,19.90
2017-11-25T22:07:22.104Z,20.67
2017-11-25T22:09:49.594Z,19.05
2017-11-25T22:12:17.043Z,18.40
2017-11-25T22:14:44.510Z,17.02
2017-11-25T22:17:11.914Z,19.17
2017-11-25T22:19:40.149Z,17.73
2017-11-25T22:22:07.612Z,16.05
2017-11-25T22:24:35.064Z,17.12
2017-11-25T22:27:02.615Z,18.50
2017-11-25T22:29:30.055Z,19.17
2017-11-25T22:31:57.489Z,16.42
2017-11-25T22:34:24.935Z,17.48
2017-11-25T22:36:52.446Z,17.33
2017-11-25T22:39:19.908Z,17.27
2017-11-25T22:41:47.448Z,16.33
2017-11-25T22:44:14.911Z,16.55
2017-11-25T22:46:42.349Z,16.98
2017-11-25T22:49:09.797Z,15.50
2017-11-25T22:51:37.497Z,15.25
2017-11-25T22:54:05.047Z,14.53
2017-11-25T22:56:32.512Z,14.68
2017-11-25T22:58:59.975Z,15.55
2017-11-25T23:01:27.421Z,14.93
2017-11-25T23:03:54.872Z,14.95
2017-11-25T23:06:22.315Z,14.85
2017-11-25T23:08:49.761Z,15.02
2017-11-25T23:11:17.209Z,14.70
2017-11-25T23:13:44.674Z,14.10
2017-11-25T23:16:12.264Z,22.85
2017-11-25T23:18:39.708Z,22.87
2017-11-25T23:21:07.181Z,16.95
2017-11-25T23:23:34.623Z,12.93
2017-11-25T23:26:02.079Z,13.65
2017-11-25T23:28:29.638Z,12.35
2017-11-25T23:30:57.097Z,11.98
2017-11-25T23:33:24.531Z,11.95
2017-11-25T23:35:51.987Z,12.32
2017-11-25T23:38:19.467Z,14.15
2017-11-25T23:40:46.916Z,13.20
2017-11-25T23:43:14.386Z,14.10
2017-11-25T23:45:41.829Z,14.05
2017-11-25T23:48:09.273Z,13.48
2017-11-25T23:50:36.728Z,14.40
2017-11-25T23:53:04.212Z,12.20
2017-11-25T23:55:31.779Z,12.52
2017-11-25T23:57:59.219Z,13.63
